createdAt,value
2018-09-19T00:00:31.943Z,56.50
2018-09-19T00:03:00.564Z,56.66
2018-09-19T00:05:29.210Z,56.49
2018-09-19T00:07:57.829Z,56.46
2018-09-19T00:10:26.412Z,56.58
2018-09-19T00:12:55.028Z,57.45
2018-09-19T00:15:23.673Z,57.52
2018-09-19T00:17:52.285Z,58.39
2018-09-19T00:20:20.934Z,60.08
2018-09-19T00:22:49.529Z,58.78
2018-09-19T00:25:18.196Z,58.68
2018-09-19T00:27:46.825Z,59.60
2018-09-19T00:30:15.437Z,59.42
2018-09-19T00:32:44.332Z,58.55
2018-09-19T00:35:12.960Z,58.93
2018-09-19T00:37:42.648Z,59.48
2018-09-19T00:40:11.977Z,59.93
2018-09-19T00:42:41.053Z,59.86
2018-09-19T00:45:09.665Z,59.25
2018-09-19T00:47:38.360Z,59.96
2018-09-19T00:50:07.013Z,60.37
2018-09-19T00:52:36.029Z,60.80
2018-09-19T00:55:04.642Z,61.09
2018-09-19T00:57:33.318Z,60.48
2018-09-19T01:00:01.898Z,61.13
2018-09-19T01:02:30.533Z,60.42
2018-09-19T01:04:59.126Z,60.63
2018-09-19T01:07:27.747Z,60.52
2018-09-19T01:09:56.406Z,59.92
2018-09-19T01:12:25.045Z,60.23
2018-09-19T01:14:53.700Z,60.12
2018-09-19T01:17:22.328Z,62.25
2018-09-19T01:19:50.978Z,61.91
2018-09-19T01:22:19.592Z,62.03
2018-09-19T01:24:48.199Z,61.05
2018-09-19T01:27:16.812Z,59.65
2018-09-19T01:29:45.452Z,59.53
2018-09-19T01:32:14.027Z,60.10
2018-09-19T01:34:42.671Z,60.60
2018-09-19T01:37:11.289Z,60.16
2018-09-19T01:39:39.892Z,60.82
2018-09-19T01:42:08.566Z,61.52
2018-09-19T01:44:37.139Z,60.79
2018-09-19T01:47:05.909Z,60.77
2018-09-19T01:49:34.540Z,61.58
2018-09-19T01:52:03.155Z,61.67
2018-09-19T01:54:31.789Z,62.90
2018-09-19T01:57:00.383Z,61.86
2018-09-19T01:59:28.963Z,61.85
2018-09-19T02:01:57.601Z,60.60
2018-09-19T02:04:26.221Z,61.54
2018-09-19T02:06:54.939Z,62.32
2018-09-19T02:09:23.552Z,62.43
2018-09-19T02:11:52.212Z,61.42
2018-09-19T02:14:20.809Z,62.29
2018-09-19T02:16:49.468Z,62.31
2018-09-19T02:19:18.101Z,62.10
2018-09-19T02:21:46.758Z,63.05
2018-09-19T02:24:15.358Z,62.58
2018-09-19T02:26:44.009Z,63.62
2018-09-19T02:29:12.891Z,63.16
2018-09-19T02:31:41.540Z,63.66
2018-09-19T02:34:10.181Z,63.50
2018-09-19T02:36:38.836Z,63.00
2018-09-19T02:39:10.405Z,64.15
2018-09-19T02:41:39.077Z,64.24
2018-09-19T02:44:07.965Z,63.99
2018-09-19T02:46:36.653Z,63.97
2018-09-19T02:49:05.279Z,64.60
2018-09-19T02:51:33.926Z,63.71
2018-09-19T02:54:02.614Z,64.31
2018-09-19T02:56:31.252Z,64.08
2018-09-19T02:58:59.894Z,65.08
2018-09-19T03:01:28.547Z,64.24
2018-09-19T03:03:57.202Z,63.32
2018-09-19T03:06:25.818Z,63.98
2018-09-19T03:08:54.484Z,63.68
2018-09-19T03:11:23.517Z,64.10
2018-09-19T03:13:52.111Z,64.51
2018-09-19T03:16:20.748Z,64.81
2018-09-19T03:18:49.305Z,64.72
2018-09-19T03:21:17.918Z,64.36
2018-09-19T03:23:46.527Z,64.22
2018-09-19T03:26:15.109Z,63.82
2018-09-19T03:28:43.727Z,63.63
2018-09-19T03:31:13.212Z,64.34
2018-09-19T03:33:41.813Z,65.16
2018-09-19T03:36:10.454Z,64.84
2018-09-19T03:38:39.069Z,64.65
2018-09-19T03:41:07.685Z,64.48
2018-09-19T03:43:36.277Z,64.31
2018-09-19T03:46:11.605Z,64.55
2018-09-19T03:48:40.197Z,64.62
2018-09-19T03:51:08.792Z,64.92
2018-09-19T03:53:37.486Z,65.37
2018-09-19T03:56:06.338Z,65.00
2018-09-19T03:58:35.037Z,65.25
2018-09-19T04:01:03.718Z,65.01
2018-09-19T04:03:32.435Z,64.71
2018-09-19T04:06:01.122Z,65.42
2018-09-19T04:08:29.772Z,65.53
2018-09-19T04:10:58.354Z,65.56
2018-09-19T04:13:27.006Z,65.96
2018-09-19T04:15:55.586Z,65.94
2018-09-19T04:18:24.212Z,65.53
2018-09-19T04:20:52.833Z,65.79
2018-09-19T04:23:21.528Z,65.38
2018-09-19T04:25:50.116Z,66.13
2018-09-19T04:28:18.748Z,66.21
2018-09-19T04:30:47.342Z,66.53
2018-09-19T04:33:16.001Z,66.79
2018-09-19T04:35:44.611Z,66.14
2018-09-19T04:38:13.347Z,66.06
2018-09-19T04:40:41.992Z,66.04
2018-09-19T04:43:10.627Z,65.90
2018-09-19T04:45:39.247Z,66.38
2018-09-19T04:48:07.941Z,66.01
2018-09-19T04:50:36.626Z,66.85
2018-09-19T04:53:05.254Z,66.27
2018-09-19T04:55:33.849Z,65.33
2018-09-19T04:58:02.459Z,65.93
2018-09-19T05:00:31.096Z,65.89
2018-09-19T05:02:59.767Z,65.51
2018-09-19T05:05:28.405Z,65.14
2018-09-19T05:07:57.076Z,65.53
2018-09-19T05:10:25.709Z,66.22
2018-09-19T05:12:54.353Z,66.58
2018-09-19T05:15:23.007Z,66.31
2018-09-19T05:17:51.657Z,66.19
2018-09-19T05:20:20.291Z,65.83
2018-09-19T05:22:48.997Z,66.40
2018-09-19T05:25:17.643Z,66.66
2018-09-19T05:27:46.247Z,65.91
2018-09-19T05:30:15.094Z,66.86
2018-09-19T05:32:43.747Z,66.31
2018-09-19T05:35:12.567Z,66.27
2018-09-19T05:37:41.337Z,66.90
2018-09-19T05:40:10.046Z,66.82
2018-09-19T05:42:39.016Z,65.78
2018-09-19T05:45:08.173Z,66.54
2018-09-19T05:47:37.641Z,66.96
2018-09-19T05:50:06.492Z,66.78
2018-09-19T05:52:35.171Z,66.55
2018-09-19T05:55:04.117Z,67.50
2018-09-19T05:57:33.507Z,67.30
2018-09-19T06:00:02.387Z,65.82
2018-09-19T06:02:31.193Z,67.08
2018-09-19T06:05:00.288Z,67.20
2018-09-19T06:07:29.670Z,66.23
2018-09-19T06:09:58.444Z,67.95
2018-09-19T06:12:27.091Z,67.12
2018-09-19T06:14:56.616Z,67.23
2018-09-19T06:17:25.468Z,66.05
2018-09-19T06:19:54.310Z,66.11
2018-09-19T06:22:23.357Z,67.10
2018-09-19T06:24:52.118Z,66.48
2018-09-19T06:27:20.805Z,66.48
2018-09-19T06:29:49.538Z,66.98
2018-09-19T06:32:18.439Z,67.13
2018-09-19T06:34:47.163Z,67.14
2018-09-19T06:37:16.078Z,66.72
2018-09-19T06:39:45.750Z,66.21
2018-09-19T06:42:14.516Z,66.17
2018-09-19T06:44:43.848Z,66.01
2018-09-19T06:47:12.652Z,65.91
2018-09-19T06:49:41.533Z,65.48
2018-09-19T06:52:10.408Z,65.31
2018-09-19T06:54:41.142Z,64.82
2018-09-19T06:57:11.093Z,64.33
2018-09-19T06:59:40.751Z,64.67
2018-09-19T07:02:09.506Z,63.22
2018-09-19T07:04:38.341Z,63.93
2018-09-19T07:07:07.258Z,62.37
2018-09-19T07:09:36.592Z,59.87
2018-09-19T07:12:05.953Z,56.65
2018-09-19T07:14:35.438Z,57.38
2018-09-19T07:17:04.082Z,56.88
2018-09-19T07:19:32.748Z,57.90
2018-09-19T07:22:01.546Z,57.83
2018-09-19T07:24:30.508Z,57.58
2018-09-19T07:26:59.834Z,57.88
2018-09-19T07:29:29.517Z,56.54
2018-09-19T07:31:58.268Z,56.36
2018-09-19T07:34:28.704Z,55.99
2018-09-19T07:36:57.592Z,55.29
2018-09-19T07:39:27.027Z,54.79
2018-09-19T07:41:56.031Z,54.10
2018-09-19T07:44:24.828Z,53.61
2018-09-19T07:46:53.656Z,53.29
2018-09-19T07:49:22.846Z,52.33
2018-09-19T07:51:51.665Z,51.78
2018-09-19T07:54:20.572Z,51.56
2018-09-19T07:56:50.543Z,51.04
2018-09-19T07:59:20.465Z,50.39
2018-09-19T08:01:50.004Z,49.32
2018-09-19T08:04:18.843Z,50.67
2018-09-19T08:06:47.793Z,49.90
2018-09-19T08:09:16.856Z,49.49
2018-09-19T08:11:46.314Z,49.72
2018-09-19T08:14:15.575Z,50.16
2018-09-19T08:16:44.491Z,50.85
2018-09-19T08:19:14.192Z,50.24
2018-09-19T08:21:43.080Z,49.34
2018-09-19T08:24:11.942Z,49.45
2018-09-19T08:26:40.715Z,49.47
2018-09-19T08:29:10.557Z,50.11
2018-09-19T08:31:39.376Z,49.31
2018-09-19T08:34:08.350Z,48.69
2018-09-19T08:36:37.161Z,48.91
2018-09-19T08:39:08.744Z,49.21
2018-09-19T08:41:38.201Z,49.38
2018-09-19T08:44:07.530Z,48.84
2018-09-19T08:46:36.261Z,48.01
2018-09-19T08:49:05.197Z,47.25
2018-09-19T08:51:34.654Z,47.47
2018-09-19T08:54:03.384Z,47.53
2018-09-19T08:56:32.055Z,47.20
2018-09-19T08:59:01.014Z,46.63
2018-09-19T09:01:30.700Z,46.71
2018-09-19T09:03:59.465Z,47.06
2018-09-19T09:06:28.251Z,47.13
2018-09-19T09:08:57.086Z,45.81
2018-09-19T09:11:25.973Z,46.08
2018-09-19T09:13:54.971Z,45.41
2018-09-19T09:16:23.756Z,45.80
2018-09-19T09:18:52.725Z,44.89
2018-09-19T09:21:21.434Z,45.38
2018-09-19T09:23:50.285Z,45.52
2018-09-19T09:26:19.946Z,44.72
2018-09-19T09:28:49.178Z,44.85
2018-09-19T09:31:17.979Z,44.27
2018-09-19T09:33:46.726Z,45.15
2018-09-19T09:36:15.640Z,44.93
2018-09-19T09:38:44.531Z,43.97
2018-09-19T09:41:13.381Z,43.88
2018-09-19T09:43:42.412Z,44.28
2018-09-19T09:46:11.328Z,44.88
2018-09-19T09:48:40.171Z,44.79
2018-09-19T09:51:09.345Z,43.77
2018-09-19T09:53:38.868Z,44.56
2018-09-19T09:56:08.729Z,43.96
2018-09-19T09:58:37.425Z,43.79
2018-09-19T10:01:06.195Z,44.66
2018-09-19T10:03:34.887Z,42.97
2018-09-19T10:06:03.585Z,44.21
2018-09-19T10:08:32.274Z,42.70
2018-09-19T10:11:01.272Z,43.75
2018-09-19T10:13:29.938Z,43.38
2018-09-19T10:15:58.787Z,42.55
2018-09-19T10:18:27.461Z,43.10
2018-09-19T10:20:56.181Z,44.18
2018-09-19T10:23:24.900Z,43.54
2018-09-19T10:25:53.640Z,43.91
2018-09-19T10:28:22.460Z,44.10
2018-09-19T10:30:51.517Z,44.26
2018-09-19T10:33:20.192Z,44.02
2018-09-19T10:35:49.481Z,43.25
2018-09-19T10:38:18.269Z,43.92
2018-09-19T10:40:47.127Z,44.42
2018-09-19T10:43:15.876Z,43.94
2018-09-19T10:45:44.521Z,43.33
2018-09-19T10:48:13.234Z,43.71
2018-09-19T10:50:42.157Z,42.96
2018-09-19T10:53:10.826Z,43.50
2018-09-19T10:55:39.481Z,42.61
2018-09-19T10:58:08.130Z,42.99
2018-09-19T11:00:36.841Z,42.33
2018-09-19T11:03:05.521Z,42.03
2018-09-19T11:05:34.421Z,43.31
2018-09-19T11:08:03.399Z,43.46
2018-09-19T11:10:32.175Z,43.87
2018-09-19T11:13:01.711Z,43.65
2018-09-19T11:15:30.570Z,44.07
2018-09-19T11:17:59.469Z,44.16
2018-09-19T11:20:28.303Z,44.99
2018-09-19T11:22:57.109Z,44.67
2018-09-19T11:25:26.245Z,44.00
2018-09-19T11:27:55.074Z,43.28
2018-09-19T11:30:23.691Z,43.63
2018-09-19T11:32:52.334Z,43.31
2018-09-19T11:35:20.985Z,42.58
2018-09-19T11:37:49.672Z,41.44
2018-09-19T11:40:18.321Z,41.27
2018-09-19T11:42:47.026Z,40.79
2018-09-19T11:45:15.819Z,41.49
2018-09-19T11:47:44.736Z,39.87
2018-09-19T11:50:14.007Z,40.24
2018-09-19T11:52:42.699Z,38.99
2018-09-19T11:55:11.670Z,38.00
2018-09-19T11:57:40.351Z,39.47
2018-09-19T12:00:09.270Z,38.83
2018-09-19T12:02:37.954Z,39.43
2018-09-19T12:05:07.485Z,39.00
2018-09-19T12:07:36.262Z,39.86
2018-09-19T12:10:05.046Z,39.16
2018-09-19T12:12:33.780Z,39.57
2018-09-19T12:15:03.412Z,38.49
2018-09-19T12:17:32.441Z,38.45
2018-09-19T12:20:01.692Z,37.93
2018-09-19T12:22:31.290Z,38.39
2018-09-19T12:24:59.949Z,38.20
2018-09-19T12:27:28.805Z,37.33
2018-09-19T12:29:57.656Z,38.17
2018-09-19T12:32:27.165Z,39.43
2018-09-19T12:34:56.040Z,39.34
2018-09-19T12:37:24.927Z,38.03
2018-09-19T12:39:53.639Z,38.58
2018-09-19T12:42:22.334Z,38.96
2018-09-19T12:44:50.976Z,39.16
2018-09-19T12:47:20.028Z,39.34
2018-09-19T12:49:49.545Z,39.59
2018-09-19T12:52:18.148Z,39.27
2018-09-19T12:54:46.958Z,40.15
2018-09-19T12:57:15.826Z,39.10
2018-09-19T12:59:44.656Z,39.16
2018-09-19T13:02:13.334Z,38.39
2018-09-19T13:04:42.806Z,38.76
2018-09-19T13:07:12.435Z,38.53
2018-09-19T13:09:41.232Z,38.88
2018-09-19T13:12:10.819Z,38.26
2018-09-19T13:14:39.661Z,38.99
2018-09-19T13:17:08.379Z,38.83
2018-09-19T13:19:37.772Z,38.80
2018-09-19T13:22:06.355Z,38.54
2018-09-19T13:24:35.196Z,38.63
2018-09-19T13:27:04.115Z,38.83
2018-09-19T13:29:33.582Z,38.57
2018-09-19T13:32:02.325Z,38.45
2018-09-19T13:34:31.309Z,38.57
2018-09-19T13:37:00.090Z,39.55
2018-09-19T13:39:28.875Z,39.85
2018-09-19T13:41:57.625Z,39.09
2018-09-19T13:44:26.363Z,38.92
2018-09-19T13:46:55.206Z,39.44
2018-09-19T13:49:29.329Z,39.08
2018-09-19T13:51:58.487Z,39.01
2018-09-19T13:54:27.345Z,38.80
2018-09-19T13:56:57.265Z,39.02
2018-09-19T13:59:26.211Z,39.07
2018-09-19T14:01:54.944Z,38.58
2018-09-19T14:04:23.893Z,38.94
2018-09-19T14:06:52.603Z,38.89
2018-09-19T14:09:21.504Z,38.21
2018-09-19T14:11:50.347Z,37.52
2018-09-19T14:14:19.874Z,37.89
2018-09-19T14:16:48.840Z,36.55
2018-09-19T14:19:17.619Z,37.14
2018-09-19T14:21:46.241Z,37.61
2018-09-19T14:24:15.396Z,37.31
2018-09-19T14:26:44.331Z,37.52
2018-09-19T14:29:13.107Z,37.18
2018-09-19T14:31:42.831Z,37.45
2018-09-19T14:34:11.691Z,38.03
2018-09-19T14:36:42.748Z,37.61
2018-09-19T14:39:11.572Z,36.94
2018-09-19T14:41:40.430Z,37.41
2018-09-19T14:44:09.246Z,37.81
2018-09-19T14:46:37.955Z,38.11
2018-09-19T14:49:07.302Z,38.22
2018-09-19T14:51:36.662Z,37.93
2018-09-19T14:54:05.590Z,37.32
2018-09-19T14:56:35.831Z,37.84
2018-09-19T14:59:04.896Z,37.85
2018-09-19T15:01:33.677Z,38.57
2018-09-19T15:04:02.527Z,37.81
2018-09-19T15:06:31.617Z,38.15
2018-09-19T15:09:00.425Z,38.21
2018-09-19T15:11:30.042Z,36.96
2018-09-19T15:13:58.916Z,38.05
2018-09-19T15:16:27.894Z,37.94
2018-09-19T15:18:56.822Z,38.03
2018-09-19T15:21:26.211Z,38.19
2018-09-19T15:23:55.060Z,38.33
2018-09-19T15:26:24.408Z,38.04
2018-09-19T15:28:53.491Z,38.10
2018-09-19T15:31:23.125Z,37.32
2018-09-19T15:33:52.307Z,37.14
2018-09-19T15:36:21.037Z,37.82
2018-09-19T15:38:50.412Z,38.64
2018-09-19T15:41:25.549Z,38.73
2018-09-19T15:43:54.401Z,38.80
2018-09-19T15:46:23.232Z,39.60
2018-09-19T15:48:52.156Z,39.44
2018-09-19T15:51:20.956Z,39.88
2018-09-19T15:53:49.740Z,39.87
2018-09-19T15:56:19.069Z,39.05
2018-09-19T15:58:48.331Z,39.08
2018-09-19T16:01:17.277Z,39.99
2018-09-19T16:03:46.035Z,39.41
2018-09-19T16:06:15.164Z,39.70
2018-09-19T16:08:43.886Z,39.54
2018-09-19T16:11:14.179Z,38.68
2018-09-19T16:13:43.377Z,39.71
2018-09-19T16:16:12.190Z,38.75
2018-09-19T16:18:40.985Z,40.41
2018-09-19T16:21:10.492Z,39.23
2018-09-19T16:23:39.374Z,39.10
2018-09-19T16:26:08.278Z,40.28
2018-09-19T16:28:37.631Z,39.80
2018-09-19T16:31:07.386Z,39.39
2018-09-19T16:33:36.106Z,39.83
2018-09-19T16:36:05.552Z,40.90
2018-09-19T16:38:34.390Z,40.15
2018-09-19T16:41:04.072Z,40.83
2018-09-19T16:43:32.925Z,41.96
2018-09-19T16:46:01.845Z,42.71
2018-09-19T16:48:31.515Z,41.64
2018-09-19T16:51:00.297Z,41.42
2018-09-19T16:53:29.040Z,41.60
2018-09-19T16:55:58.374Z,42.61
2018-09-19T16:58:27.624Z,43.64
2018-09-19T17:00:56.522Z,42.65
2018-09-19T17:03:25.310Z,42.41
2018-09-19T17:05:54.632Z,43.31
2018-09-19T17:08:23.544Z,43.42
2018-09-19T17:10:52.930Z,43.03
2018-09-19T17:13:22.652Z,42.67
2018-09-19T17:15:51.618Z,42.92
2018-09-19T17:18:20.434Z,42.57
2018-09-19T17:20:49.266Z,42.45
2018-09-19T17:23:17.972Z,42.45
2018-09-19T17:25:46.868Z,43.22
2018-09-19T17:28:16.016Z,43.41
2018-09-19T17:30:45.015Z,43.23
2018-09-19T17:33:16.220Z,43.31
2018-09-19T17:35:45.356Z,42.75
2018-09-19T17:38:14.287Z,42.28
2018-09-19T17:40:43.595Z,42.97
2018-09-19T17:43:12.643Z,43.66
2018-09-19T17:45:41.414Z,43.49
2018-09-19T17:48:10.230Z,43.00
2018-09-19T17:50:38.881Z,42.77
2018-09-19T17:53:09.180Z,43.28
2018-09-19T17:55:37.996Z,43.95
2018-09-19T17:58:07.748Z,43.62
2018-09-19T18:00:37.116Z,43.16
2018-09-19T18:03:06.509Z,44.92
2018-09-19T18:05:35.196Z,44.40
2018-09-19T18:08:04.210Z,44.37
2018-09-19T18:10:32.904Z,44.49
2018-09-19T18:13:01.556Z,43.89
2018-09-19T18:15:30.245Z,43.50
2018-09-19T18:17:59.096Z,43.61
2018-09-19T18:20:29.065Z,44.05
2018-09-19T18:22:57.715Z,44.00
2018-09-19T18:25:26.510Z,44.68
2018-09-19T18:27:55.439Z,45.26
2018-09-19T18:30:24.230Z,44.41
2018-09-19T18:32:53.084Z,44.70
2018-09-19T18:35:21.894Z,45.20
2018-09-19T18:37:50.630Z,44.46
2018-09-19T18:40:19.358Z,45.03
2018-09-19T18:42:48.118Z,45.55
2018-09-19T18:45:16.734Z,45.59
2018-09-19T18:47:45.419Z,45.48
2018-09-19T18:50:14.213Z,45.23
2018-09-19T18:52:43.821Z,45.78
2018-09-19T18:55:12.526Z,46.27
2018-09-19T18:57:41.261Z,46.66
2018-09-19T19:00:10.915Z,46.54
2018-09-19T19:02:39.815Z,45.18
2018-09-19T19:05:09.546Z,45.90
2018-09-19T19:07:38.443Z,46.64
2018-09-19T19:10:07.336Z,45.22
2018-09-19T19:12:36.143Z,46.95
2018-09-19T19:15:09.100Z,46.19
2018-09-19T19:17:38.041Z,46.74
2018-09-19T19:20:06.922Z,47.40
2018-09-19T19:22:35.868Z,47.38
2018-09-19T19:25:04.910Z,47.22
2018-09-19T19:27:33.883Z,46.85
2018-09-19T19:30:02.700Z,46.36
2018-09-19T19:32:31.531Z,46.76
2018-09-19T19:35:00.381Z,47.55
2018-09-19T19:37:29.352Z,47.70
2018-09-19T19:39:58.275Z,48.81
2018-09-19T19:42:27.285Z,48.55
2018-09-19T19:44:56.865Z,47.54
2018-09-19T19:47:25.551Z,48.63
2018-09-19T19:49:54.240Z,48.41
2018-09-19T19:52:23.186Z,47.96
2018-09-19T19:54:52.173Z,49.05
2018-09-19T19:57:21.656Z,49.26
2018-09-19T19:59:50.470Z,48.69
2018-09-19T20:02:19.536Z,49.25
2018-09-19T20:04:48.236Z,49.29
2018-09-19T20:07:16.921Z,49.72
2018-09-19T20:09:45.797Z,49.79
2018-09-19T20:12:14.614Z,49.24
2018-09-19T20:14:44.071Z,50.12
2018-09-19T20:17:14.732Z,49.99
2018-09-19T20:19:44.549Z,50.00
2018-09-19T20:22:13.875Z,50.19
2018-09-19T20:24:43.412Z,49.97
2018-09-19T20:27:12.265Z,50.39
2018-09-19T20:29:41.130Z,50.51
2018-09-19T20:32:09.964Z,51.14
2018-09-19T20:34:38.651Z,50.43
2018-09-19T20:37:08.451Z,51.56
2018-09-19T20:39:37.204Z,51.82
2018-09-19T20:42:06.197Z,52.70
2018-09-19T20:44:35.071Z,51.66
2018-09-19T20:47:04.114Z,51.86
2018-09-19T20:49:32.936Z,52.09
2018-09-19T20:52:01.726Z,52.37
2018-09-19T20:54:30.544Z,52.92
2018-09-19T20:56:59.304Z,52.81
2018-09-19T20:59:28.069Z,52.37
2018-09-19T21:01:56.956Z,53.26
2018-09-19T21:04:25.729Z,52.53
2018-09-19T21:06:54.381Z,52.86
2018-09-19T21:09:23.636Z,53.25
2018-09-19T21:11:52.379Z,52.96
2018-09-19T21:14:21.094Z,53.06
2018-09-19T21:16:50.165Z,54.41
2018-09-19T21:19:19.821Z,55.25
2018-09-19T21:21:49.505Z,53.52
2018-09-19T21:24:18.909Z,53.96
2018-09-19T21:26:47.855Z,53.17
2018-09-19T21:29:16.560Z,54.17
2018-09-19T21:31:45.270Z,54.80
2018-09-19T21:34:14.174Z,55.15
2018-09-19T21:36:42.823Z,54.29
2018-09-19T21:39:12.151Z,54.78
2018-09-19T21:41:40.921Z,55.46
2018-09-19T21:44:09.657Z,55.77
2018-09-19T21:46:38.328Z,53.51
2018-09-19T21:49:07.258Z,53.78
2018-09-19T21:51:36.090Z,53.44
2018-09-19T21:54:05.001Z,53.91
2018-09-19T21:56:33.709Z,54.90
2018-09-19T21:59:03.353Z,55.37
2018-09-19T22:01:37.314Z,55.64
2018-09-19T22:04:07.066Z,54.67
2018-09-19T22:06:36.216Z,56.53
2018-09-19T22:09:08.443Z,56.72
2018-09-19T22:11:38.640Z,56.94
2018-09-19T22:14:07.525Z,54.49
2018-09-19T22:16:36.404Z,55.67
2018-09-19T22:19:05.154Z,55.76
2018-09-19T22:21:33.846Z,55.80
2018-09-19T22:24:02.633Z,55.02
2018-09-19T22:26:31.306Z,56.92
2018-09-19T22:28:59.961Z,55.67
2018-09-19T22:31:28.992Z,55.17
2018-09-19T22:33:57.587Z,56.52
2018-09-19T22:36:26.126Z,56.97
2018-09-19T22:38:54.857Z,57.09
2018-09-19T22:41:23.501Z,57.33
2018-09-19T22:43:52.348Z,57.12
2018-09-19T22:46:21.100Z,56.51
2018-09-19T22:48:50.425Z,55.76
2018-09-19T22:51:20.035Z,55.14
2018-09-19T22:53:48.819Z,55.30
2018-09-19T22:56:17.410Z,55.26
2018-09-19T22:58:46.186Z,55.89
2018-09-19T23:01:15.035Z,56.19
2018-09-19T23:03:44.235Z,55.32
2018-09-19T23:06:12.750Z,55.52
2018-09-19T23:08:41.347Z,55.37
2018-09-19T23:11:10.822Z,56.38
2018-09-19T23:13:39.985Z,56.02
2018-09-19T23:16:08.984Z,56.33
2018-09-19T23:18:37.609Z,57.16
2018-09-19T23:21:06.255Z,55.24
2018-09-19T23:23:34.889Z,57.23
2018-09-19T23:26:03.516Z,56.40
2018-09-19T23:28:32.599Z,56.13
2018-09-19T23:31:02.121Z,56.54
2018-09-19T23:33:30.781Z,56.73
2018-09-19T23:35:59.500Z,56.34
2018-09-19T23:38:28.211Z,56.16
2018-09-19T23:40:56.835Z,55.84
2018-09-19T23:43:25.422Z,54.73
2018-09-19T23:45:54.135Z,56.76
2018-09-19T23:48:22.993Z,56.82
2018-09-19T23:50:52.301Z,56.70
2018-09-19T23:53:20.910Z,56.11
2018-09-19T23:55:49.487Z,55.89
2018-09-19T23:58:18.767Z,55.72
